createdAt,value
2018-09-28T04:28:49.897Z,99.90
2018-09-28T04:31:18.386Z,99.90
2018-09-28T04:33:46.939Z,99.90
2018-09-28T04:36:15.500Z,99.90
2018-09-28T04:38:44.027Z,99.90
2018-09-28T04:41:12.598Z,99.90
2018-09-28T04:43:41.133Z,99.90
2018-09-28T04:46:10.933Z,99.90
2018-09-28T04:48:39.430Z,99.90
2018-09-28T04:51:08.403Z,99.90
2018-09-28T04:53:36.953Z,99.90
2018-09-28T04:56:05.484Z,99.90
2018-09-28T04:58:33.965Z,99.90
2018-09-28T05:01:02.469Z,99.90
2018-09-28T05:03:30.959Z,99.90
2018-09-28T05:05:59.457Z,99.90
2018-09-28T05:08:27.942Z,99.90
2018-09-28T05:10:56.438Z,99.90
2018-09-28T05:13:24.917Z,99.90
2018-09-28T05:15:53.414Z,99.90
2018-09-28T05:18:21.889Z,99.90
2018-09-28T05:20:50.388Z,99.90
2018-09-28T05:23:18.890Z,99.90
2018-09-28T05:25:47.549Z,99.90
2018-09-28T05:28:16.041Z,99.90
2018-09-28T05:30:44.970Z,99.90
2018-09-28T05:33:13.253Z,99.90
2018-09-28T05:35:41.870Z,99.90
2018-09-28T05:38:10.364Z,99.90
2018-09-28T05:40:39.176Z,99.90
2018-09-28T05:43:07.750Z,99.90
2018-09-28T05:45:36.265Z,99.90
2018-09-28T05:48:04.808Z,99.90
2018-09-28T05:50:33.328Z,99.90
2018-09-28T05:53:01.800Z,99.90
2018-09-28T05:55:30.379Z,99.90
2018-09-28T05:58:04.099Z,99.90
2018-09-28T06:00:37.989Z,99.90
2018-09-28T06:03:13.195Z,99.90
2018-09-28T06:05:44.117Z,99.90
2018-09-28T06:08:13.488Z,99.90
2018-09-28T06:10:42.015Z,99.90
2018-09-28T06:13:10.505Z,99.90
2018-09-28T06:15:39.032Z,99.90
2018-09-28T06:18:07.535Z,99.90
2018-09-28T06:20:36.385Z,99.90
2018-09-28T06:23:05.251Z,99.90
2018-09-28T06:25:33.836Z,99.90
2018-09-28T06:28:02.340Z,99.90
2018-09-28T06:30:31.035Z,99.90
2018-09-28T06:32:59.560Z,99.90
2018-09-28T06:35:28.128Z,99.90
2018-09-28T06:37:56.622Z,99.90
2018-09-28T06:40:25.157Z,99.90
2018-09-28T06:42:53.662Z,99.90
2018-09-28T06:45:22.333Z,99.90
2018-09-28T06:47:50.876Z,99.90
2018-09-28T06:50:19.492Z,99.90
2018-09-28T06:52:47.961Z,99.90
2018-09-28T06:55:16.522Z,99.90
2018-09-28T06:57:45.160Z,99.90
2018-09-28T07:00:14.965Z,99.90
2018-09-28T07:02:43.449Z,99.90
2018-09-28T07:05:12.520Z,99.90
2018-09-28T07:07:41.109Z,99.90
2018-09-28T07:10:09.659Z,99.90
2018-09-28T07:12:38.169Z,99.90
2018-09-28T07:15:06.722Z,99.90
2018-09-28T07:17:35.208Z,99.90
2018-09-28T07:20:03.838Z,99.90
2018-09-28T07:22:32.320Z,99.90
2018-09-28T07:25:00.852Z,99.90
2018-09-28T07:27:29.338Z,99.90
2018-09-28T07:29:57.938Z,99.90
2018-09-28T07:32:26.360Z,99.90
2018-09-28T07:34:54.876Z,99.90
2018-09-28T07:37:23.418Z,99.90
2018-09-28T07:39:51.903Z,99.90
2018-09-28T07:42:20.491Z,99.90
2018-09-28T07:44:49.013Z,99.90
2018-09-28T07:47:17.568Z,99.90
2018-09-28T07:49:46.054Z,99.90
2018-09-28T07:52:14.648Z,99.90
2018-09-28T07:54:43.121Z,99.90
2018-09-28T07:57:11.682Z,99.90
2018-09-28T07:59:40.325Z,99.90
2018-09-28T08:02:09.250Z,99.90
2018-09-28T08:04:37.743Z,99.90
2018-09-28T08:07:06.277Z,99.90
2018-09-28T08:09:34.789Z,99.90
2018-09-28T08:12:03.293Z,99.90
2018-09-28T08:14:31.792Z,99.90
2018-09-28T08:17:00.308Z,99.90
2018-09-28T08:19:28.818Z,99.90
2018-09-28T08:21:57.370Z,99.40
2018-09-28T08:24:25.924Z,99.90
2018-09-28T08:26:54.460Z,99.90
2018-09-28T08:29:24.338Z,99.90
2018-09-28T08:31:52.877Z,98.50
2018-09-28T08:34:22.002Z,98.60
2018-09-28T08:36:50.704Z,99.20
2018-09-28T08:39:19.117Z,98.40
2018-09-28T08:41:47.727Z,98.40
2018-09-28T08:44:16.286Z,98.80
2018-09-28T08:46:44.996Z,97.90
2018-09-28T08:49:13.594Z,98.00
2018-09-28T08:51:42.153Z,97.50
2018-09-28T08:54:10.726Z,97.30
2018-09-28T08:56:39.260Z,96.80
2018-09-28T08:59:07.787Z,96.90
2018-09-28T09:01:36.454Z,97.10
2018-09-28T09:04:05.218Z,96.40
2018-09-28T09:06:33.749Z,95.80
2018-09-28T09:09:02.338Z,94.60
2018-09-28T09:11:30.937Z,95.00
2018-09-28T09:14:03.229Z,94.80
2018-09-28T09:16:31.773Z,92.90
2018-09-28T09:19:00.471Z,94.10
2018-09-28T09:21:28.996Z,93.80
2018-09-28T09:23:57.533Z,92.70
2018-09-28T09:26:26.133Z,90.60
2018-09-28T09:28:54.664Z,92.20
2018-09-28T09:31:23.213Z,89.20
2018-09-28T09:33:51.723Z,87.70
2018-09-28T09:36:21.512Z,90.00
2018-09-28T09:38:51.094Z,84.80
2018-09-28T09:41:20.216Z,85.60
2018-09-28T09:43:49.071Z,81.30
2018-09-28T09:46:18.545Z,84.30
2018-09-28T09:48:47.716Z,83.00
2018-09-28T09:51:16.268Z,76.30
2018-09-28T09:53:47.350Z,75.40
2018-09-28T09:56:16.490Z,74.30
2018-09-28T09:58:44.998Z,74.90
2018-09-28T10:01:18.822Z,74.90
2018-09-28T10:03:50.089Z,76.20
2018-09-28T10:06:18.694Z,77.30
2018-09-28T10:08:47.260Z,75.30
2018-09-28T10:11:15.995Z,73.30
2018-09-28T10:13:44.792Z,72.90
2018-09-28T10:16:13.327Z,71.80
2018-09-28T10:18:41.853Z,67.90
2018-09-28T10:21:10.406Z,65.60
2018-09-28T10:23:39.097Z,65.80
2018-09-28T10:26:07.630Z,63.40
2018-09-28T10:28:36.392Z,60.90
2018-09-28T10:31:05.281Z,61.00
2018-09-28T10:33:33.957Z,58.70
2018-09-28T10:36:03.759Z,56.10
2018-09-28T10:38:32.284Z,53.40
2018-09-28T10:41:01.554Z,53.40
2018-09-28T10:43:30.378Z,56.70
2018-09-28T10:45:58.871Z,57.90
2018-09-28T10:48:28.082Z,57.60
2018-09-28T10:50:59.252Z,54.60
2018-09-28T10:53:28.770Z,52.40
2018-09-28T10:56:00.917Z,51.00
2018-09-28T10:58:31.230Z,47.10
2018-09-28T11:01:02.970Z,49.50
2018-09-28T11:03:31.626Z,48.60
2018-09-28T11:06:00.982Z,47.60
2018-09-28T11:08:30.479Z,44.70
2018-09-28T11:10:59.900Z,44.50
2018-09-28T11:13:29.401Z,43.80
2018-09-28T11:15:58.620Z,44.00
2018-09-28T11:18:28.878Z,43.00
2018-09-28T11:20:58.794Z,44.70
2018-09-28T11:23:29.514Z,44.60
2018-09-28T11:25:59.174Z,43.50
2018-09-28T11:28:29.267Z,44.90
2018-09-28T11:30:58.855Z,45.40
2018-09-28T11:33:28.352Z,48.10
2018-09-28T11:36:00.203Z,47.90
2018-09-28T11:38:30.371Z,48.50
2018-09-28T11:40:59.850Z,50.90
2018-09-28T11:43:29.806Z,53.00
2018-09-28T11:45:58.923Z,53.60
2018-09-28T11:48:28.656Z,55.40
2018-09-28T11:50:58.178Z,55.50
2018-09-28T11:53:27.604Z,57.30
2018-09-28T11:55:56.758Z,59.20
2018-09-28T11:58:26.472Z,58.00
2018-09-28T12:00:56.090Z,57.50
2018-09-28T12:03:25.574Z,58.80
2018-09-28T12:05:54.795Z,59.00
2018-09-28T12:08:24.217Z,59.70
2018-09-28T12:10:53.724Z,60.50
2018-09-28T12:13:23.241Z,61.80
2018-09-28T12:15:52.545Z,62.70
2018-09-28T12:18:21.283Z,64.80
2018-09-28T12:20:50.751Z,63.30
2018-09-28T12:23:22.102Z,60.60
2018-09-28T12:25:52.253Z,59.30
2018-09-28T12:28:21.243Z,61.30
2018-09-28T12:30:50.839Z,63.90
2018-09-28T12:33:20.151Z,64.90
2018-09-28T12:35:49.203Z,65.20
2018-09-28T12:38:18.976Z,66.40
2018-09-28T12:40:47.923Z,65.80
2018-09-28T12:43:17.032Z,66.90
2018-09-28T12:45:46.687Z,67.70
2018-09-28T12:48:15.701Z,68.90
2018-09-28T12:50:45.042Z,69.30
2018-09-28T12:53:14.343Z,70.20
2018-09-28T12:55:43.668Z,71.50
2018-09-28T12:58:12.348Z,72.10
2018-09-28T13:00:42.288Z,73.20
2018-09-28T13:03:13.112Z,73.40
2018-09-28T13:05:43.800Z,74.80
2018-09-28T13:08:14.767Z,75.90
2018-09-28T13:10:47.054Z,77.80
2018-09-28T13:13:19.227Z,79.30
2018-09-28T13:15:49.915Z,80.50
2018-09-28T13:18:20.609Z,81.80
2018-09-28T13:20:51.498Z,83.20
2018-09-28T13:23:22.017Z,84.40
2018-09-28T13:25:52.829Z,85.50
2018-09-28T13:28:23.333Z,86.90
2018-09-28T13:30:54.384Z,88.00
2018-09-28T13:33:24.597Z,89.10
2018-09-28T13:35:57.919Z,90.10
2018-09-28T13:38:30.253Z,90.70
2018-09-28T13:40:59.788Z,91.20
2018-09-28T13:43:28.395Z,91.80
2018-09-28T13:45:57.136Z,91.90
2018-09-28T13:48:25.763Z,92.00
2018-09-28T13:50:54.896Z,92.20
2018-09-28T13:53:24.814Z,92.60
2018-09-28T13:55:54.380Z,92.70
2018-09-28T13:58:23.903Z,93.40
2018-09-28T14:00:53.411Z,93.80
2018-09-28T14:03:29.326Z,94.20
2018-09-28T14:06:00.725Z,94.60
2018-09-28T14:08:31.405Z,94.90
2018-09-28T14:11:01.756Z,95.60
2018-09-28T14:13:31.656Z,95.90
2018-09-28T14:16:02.382Z,96.10
2018-09-28T14:18:32.076Z,96.20
2018-09-28T14:21:01.406Z,96.30
2018-09-28T14:23:30.314Z,96.20
2018-09-28T14:25:58.857Z,96.20
2018-09-28T14:28:33.545Z,96.00
2018-09-28T14:31:05.606Z,96.30
2018-09-28T14:33:37.838Z,96.50
2018-09-28T14:36:11.564Z,96.90
2018-09-28T14:38:40.515Z,97.00
2018-09-28T14:41:10.679Z,97.30
2018-09-28T14:43:41.102Z,97.20
2018-09-28T14:46:13.995Z,97.10
2018-09-28T14:48:44.785Z,97.40
2018-09-28T14:51:16.772Z,97.70
2018-09-28T14:53:50.196Z,97.90
2018-09-28T14:56:20.823Z,98.30
2018-09-28T14:58:52.124Z,98.60
2018-09-28T15:01:22.943Z,98.90
2018-09-28T15:03:53.901Z,98.70
2018-09-28T15:06:24.129Z,99.00
2018-09-28T15:08:55.127Z,99.40
2018-09-28T15:11:30.123Z,99.50
2018-09-28T15:14:00.446Z,99.20
2018-09-28T15:16:31.288Z,99.20
2018-09-28T15:18:59.894Z,98.90
2018-09-28T15:21:28.428Z,98.90
2018-09-28T15:23:58.401Z,99.00
2018-09-28T15:26:28.732Z,99.20
2018-09-28T15:29:00.438Z,99.00
2018-09-28T15:31:30.578Z,98.90
2018-09-28T15:34:00.507Z,98.90
2018-09-28T15:36:33.254Z,98.80
2018-09-28T15:39:04.473Z,98.60
2018-09-28T15:41:35.541Z,98.80
2018-09-28T15:44:07.990Z,99.10
2018-09-28T15:46:43.484Z,99.50
2018-09-28T15:49:14.471Z,99.50
2018-09-28T15:51:46.621Z,99.20
2018-09-28T15:54:21.943Z,99.20
2018-09-28T15:56:55.032Z,98.80
2018-09-28T15:59:30.531Z,98.60
2018-09-28T16:04:40.831Z,98.00
2018-09-28T16:07:10.921Z,97.40
2018-09-28T16:09:43.339Z,97.40
2018-09-28T16:12:11.978Z,97.40
2018-09-28T16:14:40.497Z,97.20
2018-09-28T16:17:09.073Z,97.10
2018-09-28T16:19:37.717Z,96.70
2018-09-28T16:22:06.572Z,96.80
2018-09-28T16:24:37.071Z,96.30
2018-09-28T16:27:05.694Z,96.30
2018-09-28T16:29:34.282Z,96.10
2018-09-28T16:32:03.547Z,95.40
2018-09-28T16:34:32.290Z,95.20
2018-09-28T16:37:02.632Z,94.90
2018-09-28T16:39:44.080Z,94.50
2018-09-28T16:42:15.709Z,94.00
2018-09-28T16:44:45.651Z,93.90
2018-09-28T16:47:15.968Z,93.80
2018-09-28T16:49:45.904Z,93.50
2018-09-28T16:52:15.057Z,93.40
2018-09-28T16:54:45.087Z,93.10
2018-09-28T16:57:14.581Z,93.20
2018-09-28T16:59:47.008Z,93.30
2018-09-28T17:02:18.868Z,93.00
2018-09-28T17:04:56.739Z,93.30
2018-09-28T17:07:26.133Z,92.90
2018-09-28T17:10:05.767Z,92.70
2018-09-28T17:12:35.022Z,92.60
2018-09-28T17:15:10.000Z,92.10
2018-09-28T17:17:40.167Z,91.40
2018-09-28T17:20:10.397Z,91.50
2018-09-28T17:22:43.355Z,91.50
2018-09-28T17:25:15.203Z,91.40
2018-09-28T17:27:51.819Z,91.30
2018-09-28T17:30:23.439Z,91.00
2018-09-28T17:32:53.679Z,90.90
2018-09-28T17:35:26.638Z,90.90
2018-09-28T17:37:58.272Z,90.80
2018-09-28T17:40:28.547Z,90.80
2018-09-28T17:42:59.721Z,90.50
2018-09-28T17:45:30.063Z,90.40
2018-09-28T17:48:05.968Z,90.40
2018-09-28T17:50:38.753Z,90.40
2018-09-28T17:53:12.565Z,90.10
2018-09-28T17:55:41.135Z,90.10
2018-09-28T17:58:10.672Z,90.20
2018-09-28T18:00:39.307Z,90.10
2018-09-28T18:03:07.790Z,90.00
2018-09-28T18:05:36.373Z,90.00
2018-09-28T18:08:04.901Z,90.10
2018-09-28T18:10:34.290Z,89.80
2018-09-28T18:13:03.319Z,90.30
2018-09-28T18:15:31.896Z,90.00
2018-09-28T18:18:01.899Z,89.70
2018-09-28T18:20:30.434Z,90.00
2018-09-28T18:23:00.375Z,90.10
2018-09-28T18:25:29.434Z,90.60
2018-09-28T18:27:59.381Z,91.20
2018-09-28T18:30:28.631Z,91.60
2018-09-28T18:32:57.170Z,91.70
2018-09-28T18:35:25.730Z,91.70
2018-09-28T18:37:54.354Z,91.80
2018-09-28T18:40:23.150Z,91.70
2018-09-28T18:42:52.020Z,91.80
2018-09-28T18:45:22.191Z,91.80
2018-09-28T18:47:52.282Z,92.00
2018-09-28T18:50:22.537Z,92.10
2018-09-28T18:52:54.596Z,92.50
2018-09-28T18:55:25.241Z,92.70
2018-09-28T18:57:54.287Z,92.90
2018-09-28T19:00:23.829Z,93.10
2018-09-28T19:02:53.274Z,93.30
2018-09-28T19:05:21.754Z,93.60
2018-09-28T19:07:50.270Z,93.70
2018-09-28T19:10:18.763Z,93.90
2018-09-28T19:12:47.362Z,94.10
2018-09-28T19:15:17.538Z,94.00
2018-09-28T19:17:47.358Z,94.00
2018-09-28T19:20:15.930Z,94.20
2018-09-28T19:22:47.283Z,94.40
2018-09-28T19:25:17.987Z,94.30
2018-09-28T19:27:47.697Z,94.40
2018-09-28T19:30:17.223Z,94.50
2018-09-28T19:32:47.068Z,94.50
2018-09-28T19:35:16.753Z,94.60
2018-09-28T19:37:47.499Z,94.50
2018-09-28T19:40:16.186Z,94.60
2018-09-28T19:42:46.056Z,94.80
2018-09-28T19:45:16.550Z,94.80
2018-09-28T19:47:48.480Z,95.00
2018-09-28T19:50:18.370Z,95.20
2018-09-28T19:52:48.541Z,95.20
2018-09-28T19:55:18.562Z,95.20
2018-09-28T19:57:52.554Z,95.10
2018-09-28T20:00:23.620Z,95.10
2018-09-28T20:02:53.798Z,95.10
2018-09-28T20:05:23.802Z,95.20
2018-09-28T20:07:53.571Z,95.20
2018-09-28T20:10:25.401Z,95.10
2018-09-28T20:12:56.148Z,95.10
2018-09-28T20:15:26.089Z,95.10
2018-09-28T20:17:56.122Z,95.30
2018-09-28T20:20:26.166Z,95.20
2018-09-28T20:22:56.102Z,95.20
2018-09-28T20:25:25.853Z,94.90
2018-09-28T20:27:56.519Z,94.70
2018-09-28T20:30:26.525Z,94.70
2018-09-28T20:32:56.707Z,94.70
2018-09-28T20:35:26.615Z,94.70
2018-09-28T20:37:57.197Z,94.70
2018-09-28T20:40:27.758Z,94.40
2018-09-28T20:42:58.315Z,94.30
2018-09-28T20:45:28.894Z,94.40
2018-09-28T20:47:59.656Z,94.20
2018-09-28T20:50:29.774Z,94.10
2018-09-28T20:52:59.772Z,94.10
2018-09-28T20:55:31.454Z,93.80
2018-09-28T20:58:02.020Z,93.90
2018-09-28T21:00:31.895Z,93.70
2018-09-28T21:03:02.863Z,93.50
2018-09-28T21:05:33.065Z,93.40
2018-09-28T21:08:07.284Z,93.60
2018-09-28T21:10:37.419Z,93.30
2018-09-28T21:13:08.086Z,93.30
2018-09-28T21:15:37.279Z,92.90
2018-09-28T21:18:06.785Z,92.80
2018-09-28T21:20:36.780Z,92.70
2018-09-28T21:23:05.611Z,92.60
2018-09-28T21:25:34.088Z,92.40
2018-09-28T21:28:02.585Z,92.40
2018-09-28T21:30:31.087Z,92.40
2018-09-28T21:32:59.595Z,92.40
2018-09-28T21:35:28.114Z,92.40
2018-09-28T21:37:56.620Z,92.60
2018-09-28T21:40:25.185Z,92.40
2018-09-28T21:42:53.722Z,92.30
2018-09-28T21:45:23.497Z,92.30
2018-09-28T21:47:52.053Z,92.30
2018-09-28T21:50:20.536Z,92.30
2018-09-28T21:52:49.049Z,92.30
2018-09-28T21:55:17.541Z,92.20
2018-09-28T21:57:46.089Z,92.40
2018-09-28T22:00:14.650Z,92.40
2018-09-28T22:02:43.155Z,92.40
2018-09-28T22:05:11.682Z,92.40
2018-09-28T22:07:40.173Z,92.20
2018-09-28T22:10:08.718Z,92.40
2018-09-28T22:12:37.208Z,92.40
2018-09-28T22:15:05.850Z,92.50
2018-09-28T22:17:34.350Z,92.50
2018-09-28T22:20:03.338Z,92.60
2018-09-28T22:22:31.905Z,92.60
2018-09-28T22:25:00.560Z,92.50
2018-09-28T22:27:29.144Z,92.30
2018-09-28T22:29:57.645Z,92.30
2018-09-28T22:32:26.121Z,92.40
2018-09-28T22:34:54.640Z,92.30
2018-09-28T22:37:23.151Z,92.20
2018-09-28T22:39:51.675Z,92.20
2018-09-28T22:42:20.156Z,92.20
2018-09-28T22:44:48.666Z,92.20
2018-09-28T22:47:17.173Z,92.00
2018-09-28T22:49:45.679Z,91.90
2018-09-28T22:52:14.154Z,91.90
2018-09-28T22:54:42.667Z,91.80
2018-09-28T22:57:11.150Z,91.80
2018-09-28T22:59:39.663Z,91.60
2018-09-28T23:02:08.152Z,91.40
2018-09-28T23:04:36.696Z,91.50
2018-09-28T23:07:05.208Z,91.50
2018-09-28T23:09:33.786Z,91.30
2018-09-28T23:12:02.294Z,91.20
2018-09-28T23:14:30.850Z,91.40
2018-09-28T23:16:59.365Z,91.40
2018-09-28T23:19:27.913Z,91.50
2018-09-28T23:21:56.479Z,91.30
2018-09-28T23:24:24.989Z,91.40
2018-09-28T23:26:53.476Z,91.00
2018-09-28T23:29:21.992Z,91.00
2018-09-28T23:31:50.480Z,90.70
2018-09-28T23:34:18.965Z,90.70
2018-09-28T23:36:47.480Z,90.70
2018-09-28T23:39:15.970Z,90.60
2018-09-28T23:41:44.490Z,90.80
2018-09-28T23:44:12.960Z,90.80
2018-09-28T23:46:41.492Z,90.90
2018-09-28T23:49:09.966Z,90.90
2018-09-28T23:51:38.469Z,90.90
2018-09-28T23:54:06.957Z,90.90
2018-09-28T23:56:35.494Z,91.00
2018-09-28T23:59:03.985Z,91.10
